createdAt,value
2024-01-24T00:01:10.588Z,9.20
2024-01-24T00:03:38.845Z,9.20
2024-01-24T00:06:14.482Z,9.20
2024-01-24T00:09:05.859Z,9.10
2024-01-24T00:11:36.267Z,9.20
2024-01-24T00:14:18.704Z,9.00
2024-01-24T00:16:47.076Z,9.00
2024-01-24T00:19:17.434Z,9.10
2024-01-24T00:21:49.315Z,9.20
2024-01-24T00:24:19.080Z,9.20
2024-01-24T00:26:47.527Z,9.20
2024-01-24T00:29:15.945Z,9.30
2024-01-24T00:31:44.919Z,9.30
2024-01-24T00:34:24.277Z,9.40
2024-01-24T00:36:58.488Z,9.30
2024-01-24T00:39:28.648Z,9.30
2024-01-24T00:41:59.481Z,9.30
2024-01-24T00:44:28.080Z,9.20
2024-01-24T00:46:57.361Z,9.10
2024-01-24T00:49:25.774Z,9.10
2024-01-24T00:51:54.057Z,9.10
2024-01-24T00:54:24.414Z,9.20
2024-01-24T00:56:54.252Z,9.20
2024-01-24T00:59:22.479Z,9.20
2024-01-24T01:01:50.858Z,9.20
2024-01-24T01:04:19.093Z,9.30
2024-01-24T01:06:47.498Z,9.40
2024-01-24T01:09:17.887Z,9.50
2024-01-24T01:11:46.250Z,9.70
2024-01-24T01:14:15.981Z,9.80
2024-01-24T01:16:50.871Z,9.90
2024-01-24T01:19:21.703Z,9.80
2024-01-24T01:21:50.229Z,9.60
2024-01-24T01:24:25.749Z,9.60
2024-01-24T01:26:56.367Z,9.60
2024-01-24T01:29:26.321Z,9.60
2024-01-24T01:31:57.387Z,9.50
2024-01-24T01:34:26.364Z,9.40
2024-01-24T01:36:56.841Z,9.30
2024-01-24T01:39:25.290Z,9.20
2024-01-24T01:41:53.640Z,9.10
2024-01-24T01:44:30.427Z,9.20
2024-01-24T01:46:58.802Z,9.30
2024-01-24T01:49:27.834Z,9.20
2024-01-24T01:51:56.253Z,9.20
2024-01-24T01:54:24.764Z,9.20
2024-01-24T01:56:53.281Z,9.20
2024-01-24T01:59:21.751Z,9.30
2024-01-24T02:01:54.462Z,9.40
2024-01-24T02:04:23.223Z,9.50
2024-01-24T02:06:51.504Z,9.60
2024-01-24T02:09:29.776Z,9.70
2024-01-24T02:11:58.094Z,9.80
2024-01-24T02:14:26.475Z,9.80
2024-01-24T02:16:56.106Z,9.90
2024-01-24T02:19:24.383Z,9.90
2024-01-24T02:21:52.715Z,9.90
2024-01-24T02:24:22.455Z,9.80
2024-01-24T02:26:51.573Z,9.70
2024-01-24T02:29:19.799Z,9.60
2024-01-24T02:31:48.056Z,9.60
2024-01-24T02:34:16.335Z,9.60
2024-01-24T02:36:44.676Z,9.60
2024-01-24T02:39:13.013Z,9.60
2024-01-24T02:41:43.482Z,9.70
2024-01-24T02:44:10.897Z,9.70
2024-01-24T02:46:39.203Z,9.80
2024-01-24T02:49:07.517Z,9.90
2024-01-24T02:51:35.879Z,9.90
2024-01-24T02:54:04.158Z,9.90
2024-01-24T02:56:34.610Z,10.00
2024-01-24T02:59:04.211Z,9.90
2024-01-24T03:01:32.450Z,9.90
2024-01-24T03:04:00.826Z,9.90
2024-01-24T03:06:29.203Z,9.90
2024-01-24T03:08:57.788Z,9.90
2024-01-24T03:11:26.647Z,9.90
2024-01-24T03:13:55.032Z,9.90
2024-01-24T03:16:24.620Z,9.80
2024-01-24T03:18:54.086Z,9.80
2024-01-24T03:21:22.500Z,9.90
2024-01-24T03:23:50.778Z,9.90
2024-01-24T03:26:19.059Z,10.00
2024-01-24T03:28:48.100Z,10.00
2024-01-24T03:31:16.842Z,10.00
2024-01-24T03:33:46.509Z,9.90
2024-01-24T03:36:14.868Z,9.80
2024-01-24T03:38:43.178Z,9.70
2024-01-24T03:41:11.619Z,9.70
2024-01-24T03:43:41.732Z,9.70
2024-01-24T03:46:10.128Z,9.70
2024-01-24T03:48:38.446Z,9.60
2024-01-24T03:51:10.746Z,9.60
2024-01-24T03:53:38.968Z,9.50
2024-01-24T03:56:08.251Z,9.50
2024-01-24T03:58:37.601Z,9.50
2024-01-24T04:01:06.591Z,9.50
2024-01-24T04:03:35.001Z,9.60
2024-01-24T04:06:03.390Z,9.50
2024-01-24T04:08:33.078Z,9.90
2024-01-24T04:11:01.342Z,10.10
2024-01-24T04:13:29.633Z,10.10
2024-01-24T04:15:57.901Z,10.40
2024-01-24T04:18:26.222Z,10.30
2024-01-24T04:20:54.578Z,10.40
2024-01-24T04:23:22.888Z,10.20
2024-01-24T04:25:52.470Z,10.50
2024-01-24T04:28:20.786Z,10.60
2024-01-24T04:30:49.039Z,10.50
2024-01-24T04:33:17.530Z,10.40
2024-01-24T04:35:45.859Z,10.50
2024-01-24T04:38:14.173Z,10.60
2024-01-24T04:40:42.804Z,10.70
2024-01-24T04:43:12.417Z,10.70
2024-01-24T04:45:40.840Z,10.50
2024-01-24T04:48:09.674Z,10.70
2024-01-24T04:50:38.861Z,10.50
2024-01-24T04:53:07.249Z,10.60
2024-01-24T04:55:35.530Z,10.60
2024-01-24T04:58:04.596Z,10.90
2024-01-24T05:00:34.350Z,10.80
2024-01-24T05:03:02.645Z,10.80
2024-01-24T05:05:31.797Z,10.70
2024-01-24T05:08:00.075Z,10.70
2024-01-24T05:10:28.981Z,10.70
2024-01-24T05:12:57.265Z,10.70
2024-01-24T05:15:25.649Z,10.60
2024-01-24T05:17:55.304Z,10.50
2024-01-24T05:20:24.453Z,10.30
2024-01-24T05:22:52.672Z,10.40
2024-01-24T05:25:20.950Z,10.40
2024-01-24T05:27:49.219Z,10.40
2024-01-24T05:30:29.381Z,10.30
2024-01-24T05:33:11.783Z,10.20
2024-01-24T05:35:40.045Z,10.10
2024-01-24T05:38:08.292Z,10.10
2024-01-24T05:40:36.563Z,10.10
2024-01-24T05:43:05.351Z,10.00
2024-01-24T05:45:33.821Z,10.10
2024-01-24T05:48:02.230Z,10.40
2024-01-24T05:50:31.885Z,10.80
2024-01-24T05:53:00.248Z,10.80
2024-01-24T05:55:29.612Z,10.60
2024-01-24T05:57:57.953Z,10.60
2024-01-24T06:00:26.334Z,10.40
2024-01-24T06:02:54.631Z,10.50
2024-01-24T06:05:22.941Z,10.40
2024-01-24T06:07:52.684Z,10.40
2024-01-24T06:10:21.307Z,10.30
2024-01-24T06:12:49.588Z,10.60
2024-01-24T06:15:20.007Z,11.10
2024-01-24T06:17:48.371Z,11.50
2024-01-24T06:20:18.673Z,11.70
2024-01-24T06:22:50.859Z,11.70
2024-01-24T06:25:20.512Z,11.90
2024-01-24T06:27:54.779Z,11.90
2024-01-24T06:30:24.169Z,12.00
2024-01-24T06:32:53.643Z,11.90
2024-01-24T06:35:22.675Z,12.00
2024-01-24T06:37:52.811Z,11.90
2024-01-24T06:40:22.616Z,11.80
2024-01-24T06:42:51.580Z,11.70
2024-01-24T06:45:20.460Z,11.50
2024-01-24T06:47:49.112Z,11.20
2024-01-24T06:50:18.820Z,11.00
2024-01-24T06:52:47.767Z,11.00
2024-01-24T06:55:18.536Z,11.00
2024-01-24T06:57:48.289Z,11.20
2024-01-24T07:00:19.738Z,11.30
2024-01-24T07:02:49.916Z,11.40
2024-01-24T07:05:18.316Z,11.50
2024-01-24T07:07:46.546Z,11.40
2024-01-24T07:10:14.799Z,11.40
2024-01-24T07:12:47.461Z,11.50
2024-01-24T07:15:18.381Z,11.50
2024-01-24T07:17:47.812Z,11.60
2024-01-24T07:20:19.246Z,11.70
2024-01-24T07:22:47.508Z,11.80
2024-01-24T07:25:15.886Z,11.90
2024-01-24T07:27:45.902Z,11.80
2024-01-24T07:30:16.843Z,11.90
2024-01-24T07:32:46.634Z,12.20
2024-01-24T07:35:15.004Z,12.30
2024-01-24T07:37:45.296Z,12.30
2024-01-24T07:40:15.509Z,12.40
2024-01-24T07:42:44.330Z,12.50
2024-01-24T07:45:12.915Z,12.50
2024-01-24T07:47:41.128Z,12.20
2024-01-24T07:50:12.811Z,12.20
2024-01-24T07:52:43.006Z,12.00
2024-01-24T07:55:13.526Z,12.00
2024-01-24T07:57:42.637Z,12.00
2024-01-24T08:00:17.960Z,12.00
2024-01-24T08:02:47.603Z,12.00
2024-01-24T08:05:21.195Z,12.00
2024-01-24T08:07:49.782Z,12.00
2024-01-24T08:10:19.358Z,11.90
2024-01-24T08:12:50.797Z,11.90
2024-01-24T08:15:19.635Z,11.80
2024-01-24T08:17:48.880Z,11.80
2024-01-24T08:20:20.800Z,11.80
2024-01-24T08:22:50.716Z,11.80
2024-01-24T08:25:19.049Z,11.80
2024-01-24T08:27:47.419Z,11.90
2024-01-24T08:30:16.894Z,12.40
2024-01-24T08:32:45.230Z,12.60
2024-01-24T08:35:14.185Z,12.70
2024-01-24T08:37:42.484Z,12.70
2024-01-24T08:40:12.959Z,12.80
2024-01-24T08:42:43.185Z,12.80
2024-01-24T08:45:11.789Z,12.90
2024-01-24T08:47:40.206Z,12.90
2024-01-24T08:50:10.362Z,12.80
2024-01-24T08:52:39.583Z,12.90
2024-01-24T08:55:09.395Z,12.90
2024-01-24T08:57:39.196Z,12.70
2024-01-24T09:00:09.893Z,12.70
2024-01-24T09:10:55.245Z,12.60
2024-01-24T09:13:26.112Z,13.00
2024-01-24T09:15:55.122Z,13.10
2024-01-24T09:18:24.114Z,13.20
2024-01-24T09:20:52.907Z,13.30
2024-01-24T09:23:21.873Z,13.50
2024-01-24T09:25:50.669Z,13.60
2024-01-24T09:28:21.017Z,13.60
2024-01-24T09:30:51.085Z,13.60
2024-01-24T09:33:20.127Z,13.80
2024-01-24T09:35:49.230Z,13.80
2024-01-24T09:38:19.731Z,13.80
2024-01-24T09:40:50.979Z,13.80
2024-01-24T09:43:33.077Z,13.80
2024-01-24T09:46:06.039Z,13.80
2024-01-24T09:48:35.792Z,13.90
2024-01-24T09:51:05.619Z,13.80
2024-01-24T09:53:37.405Z,13.90
2024-01-24T09:56:06.829Z,14.00
2024-01-24T09:58:35.290Z,13.90
2024-01-24T10:01:07.290Z,13.90
2024-01-24T10:03:37.957Z,13.90
2024-01-24T10:06:10.962Z,14.00
2024-01-24T10:08:39.580Z,14.00
2024-01-24T10:11:09.389Z,14.00
2024-01-24T10:13:40.076Z,14.00
2024-01-24T10:16:14.756Z,13.90
2024-01-24T10:18:50.126Z,14.00
2024-01-24T10:21:19.514Z,14.00
2024-01-24T10:24:02.290Z,14.00
2024-01-24T10:26:31.885Z,14.10
2024-01-24T10:29:00.370Z,14.20
2024-01-24T10:31:30.363Z,14.30
2024-01-24T10:34:01.211Z,14.30
2024-01-24T10:36:33.005Z,14.30
2024-01-24T10:39:06.430Z,14.40
2024-01-24T10:41:40.114Z,14.40
2024-01-24T10:44:11.513Z,14.30
2024-01-24T10:46:43.607Z,14.20
2024-01-24T10:49:14.051Z,14.20
2024-01-24T10:51:44.745Z,14.10
2024-01-24T10:54:16.704Z,14.00
2024-01-24T10:56:50.285Z,13.90
2024-01-24T10:59:20.626Z,13.90
2024-01-24T11:01:51.520Z,13.90
2024-01-24T11:04:24.736Z,13.80
2024-01-24T11:07:02.843Z,13.70
2024-01-24T11:09:44.396Z,13.70
2024-01-24T11:12:13.213Z,13.80
2024-01-24T11:14:47.965Z,13.70
2024-01-24T11:17:18.073Z,13.70
2024-01-24T11:19:46.913Z,13.80
2024-01-24T11:22:30.369Z,13.80
2024-01-24T11:25:02.050Z,13.80
2024-01-24T11:27:35.879Z,13.90
2024-01-24T11:30:23.823Z,13.80
2024-01-24T11:33:06.995Z,13.80
2024-01-24T11:35:39.141Z,13.70
2024-01-24T11:38:30.750Z,13.60
2024-01-24T11:41:12.861Z,13.70
2024-01-24T11:43:45.863Z,13.70
2024-01-24T11:46:16.783Z,13.70
2024-01-24T11:48:47.965Z,13.70
2024-01-24T11:51:19.758Z,13.70
2024-01-24T11:53:52.480Z,13.70
2024-01-24T11:56:26.202Z,13.80
2024-01-24T11:58:55.094Z,13.80
2024-01-24T12:02:04.973Z,13.80
2024-01-24T12:04:46.556Z,13.90
2024-01-24T12:07:15.388Z,13.90
2024-01-24T12:09:45.642Z,13.90
2024-01-24T12:12:16.806Z,13.50
2024-01-24T12:14:47.034Z,13.80
2024-01-24T12:17:50.329Z,13.90
2024-01-24T12:20:23.340Z,13.80
2024-01-24T12:22:54.119Z,13.80
2024-01-24T12:25:24.574Z,13.80
2024-01-24T12:28:02.739Z,13.80
2024-01-24T12:30:34.499Z,13.70
2024-01-24T12:33:06.059Z,13.80
2024-01-24T12:35:35.395Z,13.80
2024-01-24T12:38:09.783Z,13.80
2024-01-24T12:40:38.670Z,13.80
2024-01-24T12:43:09.758Z,13.70
2024-01-24T12:45:40.454Z,13.60
2024-01-24T12:48:13.461Z,13.60
2024-01-24T12:50:42.241Z,13.50
2024-01-24T12:53:10.778Z,13.40
2024-01-24T12:55:39.396Z,13.40
2024-01-24T12:58:10.919Z,13.50
2024-01-24T13:00:39.730Z,13.50
2024-01-24T13:03:08.527Z,13.40
2024-01-24T13:05:42.877Z,13.10
2024-01-24T13:08:17.536Z,13.40
2024-01-24T13:22:11.790Z,13.60
2024-01-24T13:24:40.464Z,13.70
2024-01-24T13:27:09.255Z,13.80
2024-01-24T13:29:37.906Z,13.80
2024-01-24T13:32:09.027Z,13.70
2024-01-24T13:34:37.609Z,13.70
2024-01-24T13:37:07.046Z,13.80
2024-01-24T13:39:37.168Z,13.80
2024-01-24T13:42:07.361Z,13.80
2024-01-24T13:44:35.874Z,13.80
2024-01-24T13:47:07.381Z,13.90
2024-01-24T13:49:36.086Z,13.80
2024-01-24T13:52:07.016Z,13.80
2024-01-24T13:54:35.745Z,13.80
2024-01-24T13:57:04.742Z,13.80
2024-01-24T13:59:34.516Z,13.90
2024-01-24T14:02:03.139Z,13.80
2024-01-24T14:04:33.203Z,13.80
2024-01-24T14:07:02.781Z,13.80
2024-01-24T14:09:31.726Z,13.80
2024-01-24T14:12:00.635Z,13.80
2024-01-24T14:14:31.882Z,13.80
2024-01-24T14:17:01.672Z,13.80
2024-01-24T14:19:30.559Z,13.70
2024-01-24T14:22:01.042Z,13.80
2024-01-24T14:24:30.034Z,13.70
2024-01-24T14:26:58.940Z,13.60
2024-01-24T14:29:27.622Z,13.50
2024-01-24T14:31:56.142Z,13.50
2024-01-24T14:34:25.151Z,13.30
2024-01-24T14:36:59.629Z,13.30
2024-01-24T14:39:49.174Z,13.20
2024-01-24T14:42:22.048Z,13.20
2024-01-24T14:44:51.888Z,13.20
2024-01-24T14:47:20.773Z,13.10
2024-01-24T14:49:49.454Z,13.10
2024-01-24T14:52:18.469Z,13.10
2024-01-24T14:54:49.126Z,13.10
2024-01-24T14:57:17.711Z,13.10
2024-01-24T14:59:46.332Z,13.10
2024-01-24T15:02:14.987Z,13.20
2024-01-24T15:04:47.540Z,13.30
2024-01-24T15:07:20.967Z,13.20
2024-01-24T15:09:56.008Z,13.30
2024-01-24T15:12:24.907Z,13.20
2024-01-24T15:14:53.418Z,13.20
2024-01-24T15:17:23.649Z,13.20
2024-01-24T15:19:52.569Z,13.20
2024-01-24T15:22:22.575Z,13.20
2024-01-24T15:24:57.778Z,13.20
2024-01-24T15:27:26.541Z,13.10
2024-01-24T15:29:56.715Z,13.00
2024-01-24T15:32:25.613Z,13.10
2024-01-24T15:34:54.500Z,13.10
2024-01-24T15:37:24.125Z,13.20
2024-01-24T15:39:54.568Z,13.10
2024-01-24T15:42:26.309Z,13.00
2024-01-24T15:44:54.776Z,13.10
2024-01-24T15:47:25.174Z,13.20
2024-01-24T15:49:53.893Z,13.30
2024-01-24T15:52:25.826Z,13.20
2024-01-24T15:54:56.206Z,13.20
2024-01-24T15:57:25.674Z,13.20
2024-01-24T15:59:56.230Z,13.10
2024-01-24T16:02:30.393Z,12.90
2024-01-24T16:05:01.639Z,12.80
2024-01-24T16:07:31.165Z,12.80
2024-01-24T16:10:14.213Z,13.00
2024-01-24T16:14:07.231Z,13.10
2024-01-24T16:17:00.618Z,13.20
2024-01-24T16:32:15.050Z,13.20
2024-01-24T16:44:04.343Z,13.30
2024-01-24T16:47:02.131Z,13.40
2024-01-24T16:49:56.377Z,13.40
2024-01-24T16:52:29.674Z,13.30
2024-01-24T16:55:00.508Z,13.40
2024-01-24T16:57:31.767Z,13.40
2024-01-24T17:00:07.727Z,13.10
2024-01-24T17:02:49.949Z,13.40
2024-01-24T17:06:03.393Z,13.30
2024-01-24T17:10:20.243Z,13.40
2024-01-24T17:26:43.595Z,13.10
2024-01-24T17:27:52.646Z,13.00
2024-01-24T17:31:28.388Z,13.00
2024-01-24T17:34:08.012Z,13.10
2024-01-24T17:36:43.031Z,13.10
2024-01-24T17:39:19.287Z,13.00
2024-01-24T17:41:49.343Z,12.90
2024-01-24T17:44:20.737Z,12.90
2024-01-24T17:46:49.338Z,13.00
2024-01-24T17:49:19.786Z,12.90
2024-01-24T17:51:50.168Z,12.80
2024-01-24T17:54:21.151Z,12.70
2024-01-24T17:56:50.122Z,12.70
2024-01-24T17:59:18.951Z,12.60
2024-01-24T18:01:50.066Z,12.50
2024-01-24T18:04:21.987Z,12.30
2024-01-24T18:06:50.848Z,12.00
2024-01-24T18:09:24.317Z,11.70
2024-01-24T18:11:53.035Z,11.50
2024-01-24T18:14:22.016Z,11.40
2024-01-24T18:16:50.491Z,11.30
2024-01-24T18:19:19.429Z,11.20
2024-01-24T18:21:50.049Z,11.20
2024-01-24T18:24:19.120Z,11.20
2024-01-24T18:26:49.571Z,11.10
2024-01-24T18:29:21.013Z,11.10
2024-01-24T18:31:49.777Z,11.10
2024-01-24T18:34:21.166Z,11.10
2024-01-24T18:36:50.174Z,11.10
2024-01-24T18:39:20.280Z,11.10
2024-01-24T18:41:54.439Z,11.10
2024-01-24T18:44:24.570Z,11.10
2024-01-24T18:46:53.622Z,11.20
2024-01-24T18:49:23.313Z,11.20
2024-01-24T18:51:52.293Z,11.20
2024-01-24T18:54:21.400Z,11.20
2024-01-24T18:56:58.686Z,11.20
2024-01-24T18:59:27.834Z,11.20
2024-01-24T19:01:57.327Z,11.10
2024-01-24T19:05:19.811Z,11.10
2024-01-24T19:08:33.545Z,11.10
2024-01-24T19:11:27.160Z,11.00
2024-01-24T19:13:58.994Z,10.80
2024-01-24T19:16:28.340Z,10.70
2024-01-24T19:19:09.828Z,10.60
2024-01-24T19:21:40.878Z,10.60
2024-01-24T19:24:11.185Z,10.60
2024-01-24T19:26:44.360Z,10.80
2024-01-24T19:29:15.771Z,10.60
2024-01-24T19:31:52.495Z,10.60
2024-01-24T19:34:23.278Z,10.50
2024-01-24T19:36:52.358Z,10.50
2024-01-24T19:39:21.079Z,10.50
2024-01-24T19:41:49.739Z,10.50
2024-01-24T19:44:25.653Z,10.40
2024-01-24T19:46:57.202Z,10.40
2024-01-24T19:49:26.303Z,10.40
2024-01-24T19:52:00.473Z,10.40
2024-01-24T19:54:29.127Z,10.40
2024-01-24T19:56:58.278Z,10.30
2024-01-24T19:59:28.565Z,10.30
2024-01-24T20:06:51.270Z,10.40
2024-01-24T20:09:19.926Z,10.40
2024-01-24T21:14:35.948Z,10.50
2024-01-24T21:35:04.100Z,10.20
2024-01-24T21:44:18.044Z,9.50
2024-01-24T22:28:28.473Z,10.10
2024-01-24T23:13:31.925Z,10.00
2024-01-24T23:49:36.446Z,9.70
2024-01-24T23:53:03.081Z,9.80
